Amber Beverly — VRHK5 — position and weather

sailwx.info

Track history (hours):
 
Tides and Currents Weather Stations Pressure Air Temp Water Temp Dewpoint Dewpoint Depression Visibility Wind Speed Wind Dir Waves Ship Positions

Amber Beverly

Last reported at 2016-Nov-16 19:12 UTC. Time now 2016-Dec-04 06:02 UTC.
Position N 01°12' E 103°52'.
Warning: this ship's position is 17 days out of date.

Length 190 m; draft 10.8 m.

Type: Cargo ship. MMSI: 477317100.

Date/timePositionNaut miles runAvg speedWind from/ knotsBaromVisibWave heightAir tempDewpointWater temp
2016-Nov-16 19:12N 01°12' E 103°52'5 8.0
2016-Nov-16 18:33N 01°15' E 103°57'4 0.3
2016-Nov-16 03:11N 01°18' E 103°60'2 2.9
2016-Nov-16 02:27N 01°16' E 103°59'  
2016-Nov-09 18:46N 29°09' E 122°37'155 4.7
2016-Nov-08 09:32N 31°30' E 121°23'0 0.1
2016-Nov-08 06:32N 31°30' E 121°23'0 0.0
2016-Nov-08 04:26N 31°30' E 121°23'0 0.0
2016-Nov-08 00:26N 31°30' E 121°23'0 0.0
2016-Nov-07 23:14N 31°30' E 121°23'0 0.0
2016-Nov-07 19:20N 31°30' E 121°23'0 0.0
2016-Nov-07 17:26N 31°30' E 121°23'0 0.0
2016-Nov-07 16:32N 31°30' E 121°23'0 0.0
2016-Nov-07 15:32N 31°30' E 121°23'0 0.0
2016-Nov-07 14:26N 31°30' E 121°23'0 0.0
2016-Nov-07 09:32N 31°30' E 121°23'0 0.0
2016-Nov-07 08:26N 31°30' E 121°23'0 0.0
2016-Nov-07 07:32N 31°30' E 121°23'0 0.0
2016-Nov-07 06:20N 31°30' E 121°23'0 0.0
2016-Nov-07 05:20N 31°30' E 121°23'0 0.0
2016-Nov-07 02:26N 31°30' E 121°23'0 0.0
2016-Nov-07 01:32N 31°30' E 121°23'0 0.0
2016-Nov-06 22:20N 31°30' E 121°23'0 0.0
2016-Nov-06 20:32N 31°30' E 121°23'0 0.0
2016-Nov-06 19:20N 31°30' E 121°23'  
Track history (hours):
 
Tides and Currents Weather Stations Pressure Air Temp Water Temp Dewpoint Dewpoint Depression Visibility Wind Speed Wind Dir Waves Ship Positions

Amber Beverly

Last reported at 2016-Nov-16 19:12 UTC. Time now 2016-Dec-04 06:02 UTC.
Position N 01°12' E 103°52'.
Warning: this ship's position is 17 days out of date.

Length 190 m; draft 10.8 m.

Type: Cargo ship. MMSI: 477317100.

Date/timePositionNaut miles runAvg speedWind from/ knotsBaromVisibWave heightAir tempDewpointWater temp
2016-Nov-16 19:12N 01°12' E 103°52'5 8.0
2016-Nov-16 18:33N 01°15' E 103°57'4 0.3
2016-Nov-16 03:11N 01°18' E 103°60'2 2.9
2016-Nov-16 02:27N 01°16' E 103°59'  
2016-Nov-09 18:46N 29°09' E 122°37'155 4.7
2016-Nov-08 09:32N 31°30' E 121°23'0 0.1
2016-Nov-08 06:32N 31°30' E 121°23'0 0.0
2016-Nov-08 04:26N 31°30' E 121°23'0 0.0
2016-Nov-08 00:26N 31°30' E 121°23'0 0.0
2016-Nov-07 23:14N 31°30' E 121°23'0 0.0
2016-Nov-07 19:20N 31°30' E 121°23'0 0.0
2016-Nov-07 17:26N 31°30' E 121°23'0 0.0
2016-Nov-07 16:32N 31°30' E 121°23'0 0.0
2016-Nov-07 15:32N 31°30' E 121°23'0 0.0
2016-Nov-07 14:26N 31°30' E 121°23'0 0.0
2016-Nov-07 09:32N 31°30' E 121°23'0 0.0
2016-Nov-07 08:26N 31°30' E 121°23'0 0.0
2016-Nov-07 07:32N 31°30' E 121°23'0 0.0
2016-Nov-07 06:20N 31°30' E 121°23'0 0.0
2016-Nov-07 05:20N 31°30' E 121°23'0 0.0
2016-Nov-07 02:26N 31°30' E 121°23'0 0.0
2016-Nov-07 01:32N 31°30' E 121°23'0 0.0
2016-Nov-06 22:20N 31°30' E 121°23'0 0.0
2016-Nov-06 20:32N 31°30' E 121°23'0 0.0
2016-Nov-06 19:20N 31°30' E 121°23'  

Dump ship's entire track history